sensor_id;sensor_type;location;lat;lon;timestamp;noise_LAeq;noise_LA_min;noise_LA_max;noise_LA01;noise_LA95
74234;Laerm;62591;55.764;37.718;2023-07-31T00:02:33;40.88;34.40;54.01;;
74234;Laerm;62591;55.764;37.718;2023-07-31T00:05:02;39.46;34.43;48.31;;
74234;Laerm;62591;55.764;37.718;2023-07-31T00:07:32;39.51;34.27;55.56;;
74234;Laerm;62591;55.764;37.718;2023-07-31T00:10:02;42.48;33.76;53.78;;
74234;Laerm;62591;55.764;37.718;2023-07-31T00:12:31;40.98;34.06;58.27;;
74234;Laerm;62591;55.764;37.718;2023-07-31T00:15:00;42.12;37.03;59.31;;
74234;Laerm;62591;55.764;37.718;2023-07-31T00:17:31;40.55;36.01;52.24;;
74234;Laerm;62591;55.764;37.718;2023-07-31T00:20:00;38.01;35.00;45.66;;
74234;Laerm;62591;55.764;37.718;2023-07-31T00:22:30;41.99;35.87;52.73;;
74234;Laerm;62591;55.764;37.718;2023-07-31T00:24:59;44.68;36.70;53.64;;
74234;Laerm;62591;55.764;37.718;2023-07-31T00:27:32;43.41;35.22;54.00;;
74234;Laerm;62591;55.764;37.718;2023-07-31T00:30:01;44.05;35.31;58.46;;
74234;Laerm;62591;55.764;37.718;2023-07-31T00:32:31;44.69;34.47;54.79;;
74234;Laerm;62591;55.764;37.718;2023-07-31T00:35:00;41.36;35.59;49.96;;
74234;Laerm;62591;55.764;37.718;2023-07-31T00:37:31;38.74;34.54;46.02;;
74234;Laerm;62591;55.764;37.718;2023-07-31T00:40:00;40.96;35.34;52.46;;
74234;Laerm;62591;55.764;37.718;2023-07-31T00:42:32;46.78;35.82;59.85;;
74234;Laerm;62591;55.764;37.718;2023-07-31T00:45:01;39.44;34.51;48.33;;
74234;Laerm;62591;55.764;37.718;2023-07-31T00:47:31;41.56;34.93;53.64;;
74234;Laerm;62591;55.764;37.718;2023-07-31T00:50:00;40.16;35.42;52.32;;
74234;Laerm;62591;55.764;37.718;2023-07-31T00:52:30;40.38;36.05;48.07;;
74234;Laerm;62591;55.764;37.718;2023-07-31T00:55:00;41.02;35.63;54.56;;
74234;Laerm;62591;55.764;37.718;2023-07-31T00:57:32;41.33;35.10;53.41;;
74234;Laerm;62591;55.764;37.718;2023-07-31T01:00:01;40.68;35.89;49.47;;
74234;Laerm;62591;55.764;37.718;2023-07-31T01:02:33;44.70;35.43;55.68;;
74234;Laerm;62591;55.764;37.718;2023-07-31T01:05:03;39.08;34.95;48.05;;
74234;Laerm;62591;55.764;37.718;2023-07-31T01:07:41;39.41;34.90;49.80;;
74234;Laerm;62591;55.764;37.718;2023-07-31T01:10:16;46.92;35.84;58.84;;
74234;Laerm;62591;55.764;37.718;2023-07-31T01:12:50;42.32;36.69;50.76;;
74234;Laerm;62591;55.764;37.718;2023-07-31T01:15:22;40.10;36.07;48.96;;
74234;Laerm;62591;55.764;37.718;2023-07-31T01:17:50;50.41;35.94;57.85;;
74234;Laerm;62591;55.764;37.718;2023-07-31T01:20:22;39.35;34.75;45.72;;
74234;Laerm;62591;55.764;37.718;2023-07-31T01:23:13;40.88;35.98;47.03;;
74234;Laerm;62591;55.764;37.718;2023-07-31T01:26:00;41.46;36.15;50.44;;
74234;Laerm;62591;55.764;37.718;2023-07-31T01:28:43;43.73;36.15;51.88;;
74234;Laerm;62591;55.764;37.718;2023-07-31T01:31:24;42.10;37.37;47.60;;
74234;Laerm;62591;55.764;37.718;2023-07-31T01:33:55;42.81;36.41;53.31;;
74234;Laerm;62591;55.764;37.718;2023-07-31T01:36:25;39.99;35.95;45.13;;
74234;Laerm;62591;55.764;37.718;2023-07-31T01:38:58;40.59;35.18;50.19;;
74234;Laerm;62591;55.764;37.718;2023-07-31T01:41:28;44.30;35.25;58.95;;
74234;Laerm;62591;55.764;37.718;2023-07-31T01:43:57;39.15;35.56;47.80;;
74234;Laerm;62591;55.764;37.718;2023-07-31T01:46:28;45.94;36.43;55.68;;
74234;Laerm;62591;55.764;37.718;2023-07-31T01:48:57;42.71;35.56;57.21;;
74234;Laerm;62591;55.764;37.718;2023-07-31T01:51:26;43.10;37.18;52.93;;
74234;Laerm;62591;55.764;37.718;2023-07-31T01:53:55;43.27;36.18;51.10;;
74234;Laerm;62591;55.764;37.718;2023-07-31T01:56:24;43.46;35.96;64.76;;
74234;Laerm;62591;55.764;37.718;2023-07-31T01:58:55;44.31;37.16;64.66;;
74234;Laerm;62591;55.764;37.718;2023-07-31T02:01:23;47.42;38.17;55.29;;
74234;Laerm;62591;55.764;37.718;2023-07-31T02:03:52;44.62;37.34;51.45;;
74234;Laerm;62591;55.764;37.718;2023-07-31T02:06:24;42.06;36.25;49.24;;
74234;Laerm;62591;55.764;37.718;2023-07-31T02:08:52;48.80;38.07;57.42;;
74234;Laerm;62591;55.764;37.718;2023-07-31T02:11:22;45.79;37.90;55.44;;
74234;Laerm;62591;55.764;37.718;2023-07-31T02:13:51;44.86;36.58;57.20;;
74234;Laerm;62591;55.764;37.718;2023-07-31T02:16:21;44.71;36.48;53.82;;
74234;Laerm;62591;55.764;37.718;2023-07-31T02:18:53;40.72;36.45;46.95;;
74234;Laerm;62591;55.764;37.718;2023-07-31T02:21:21;42.13;37.49;49.02;;
74234;Laerm;62591;55.764;37.718;2023-07-31T02:23:50;42.79;36.27;53.96;;
74234;Laerm;62591;55.764;37.718;2023-07-31T02:26:19;45.49;37.44;54.01;;
74234;Laerm;62591;55.764;37.718;2023-07-31T02:28:47;43.88;36.80;51.13;;
74234;Laerm;62591;55.764;37.718;2023-07-31T02:31:16;43.25;38.33;50.15;;
74234;Laerm;62591;55.764;37.718;2023-07-31T02:33:50;42.64;37.65;49.90;;
74234;Laerm;62591;55.764;37.718;2023-07-31T02:36:19;49.93;40.58;61.92;;
74234;Laerm;62591;55.764;37.718;2023-07-31T02:38:47;44.72;38.45;61.87;;
74234;Laerm;62591;55.764;37.718;2023-07-31T02:41:16;48.47;38.34;63.69;;
74234;Laerm;62591;55.764;37.718;2023-07-31T02:43:46;47.04;38.93;56.52;;
74234;Laerm;62591;55.764;37.718;2023-07-31T02:46:14;45.48;38.37;55.02;;
74234;Laerm;62591;55.764;37.718;2023-07-31T02:48:43;44.75;38.31;52.18;;
74234;Laerm;62591;55.764;37.718;2023-07-31T02:51:14;44.05;37.82;54.67;;
74234;Laerm;62591;55.764;37.718;2023-07-31T02:53:42;43.43;38.91;55.87;;
74234;Laerm;62591;55.764;37.718;2023-07-31T02:56:11;46.03;39.82;56.01;;
74234;Laerm;62591;55.764;37.718;2023-07-31T02:58:40;47.30;39.24;56.91;;
74234;Laerm;62591;55.764;37.718;2023-07-31T03:01:09;49.32;38.25;64.91;;
74234;Laerm;62591;55.764;37.718;2023-07-31T03:03:38;45.43;39.53;51.82;;
74234;Laerm;62591;55.764;37.718;2023-07-31T03:06:07;46.89;39.52;54.73;;
74234;Laerm;62591;55.764;37.718;2023-07-31T03:08:38;43.78;39.14;50.84;;
74234;Laerm;62591;55.764;37.718;2023-07-31T03:11:09;45.25;39.84;52.98;;
74234;Laerm;62591;55.764;37.718;2023-07-31T03:13:37;47.80;39.02;55.60;;
74234;Laerm;62591;55.764;37.718;2023-07-31T03:16:06;45.39;39.82;51.35;;
74234;Laerm;62591;55.764;37.718;2023-07-31T03:18:34;48.03;42.24;55.26;;
74234;Laerm;62591;55.764;37.718;2023-07-31T03:21:04;48.40;41.44;58.28;;
74234;Laerm;62591;55.764;37.718;2023-07-31T03:23:33;46.49;40.66;61.19;;
74234;Laerm;62591;55.764;37.718;2023-07-31T03:26:06;50.68;42.00;58.10;;
74234;Laerm;62591;55.764;37.718;2023-07-31T03:28:36;46.55;40.56;54.60;;
74234;Laerm;62591;55.764;37.718;2023-07-31T03:31:04;46.99;39.08;55.37;;
74234;Laerm;62591;55.764;37.718;2023-07-31T03:33:33;49.52;39.65;57.36;;
74234;Laerm;62591;55.764;37.718;2023-07-31T03:36:02;46.56;39.46;60.64;;
74234;Laerm;62591;55.764;37.718;2023-07-31T03:38:31;47.73;39.93;56.26;;
74234;Laerm;62591;55.764;37.718;2023-07-31T03:41:00;48.75;40.10;75.23;;
74234;Laerm;62591;55.764;37.718;2023-07-31T03:43:30;46.66;40.42;59.81;;
74234;Laerm;62591;55.764;37.718;2023-07-31T03:46:00;54.25;39.84;85.65;;
74234;Laerm;62591;55.764;37.718;2023-07-31T03:48:30;50.89;38.81;65.77;;
74234;Laerm;62591;55.764;37.718;2023-07-31T03:50:59;48.39;40.55;57.47;;
74234;Laerm;62591;55.764;37.718;2023-07-31T03:53:27;46.46;38.63;55.58;;
74234;Laerm;62591;55.764;37.718;2023-07-31T03:55:56;46.95;38.96;54.83;;
74234;Laerm;62591;55.764;37.718;2023-07-31T03:58:24;48.29;39.30;58.03;;
74234;Laerm;62591;55.764;37.718;2023-07-31T04:00:55;48.84;39.48;59.08;;
74234;Laerm;62591;55.764;37.718;2023-07-31T04:03:23;49.48;39.16;61.07;;
74234;Laerm;62591;55.764;37.718;2023-07-31T04:05:54;46.95;39.18;53.45;;
74234;Laerm;62591;55.764;37.718;2023-07-31T04:08:23;48.90;40.47;54.94;;
74234;Laerm;62591;55.764;37.718;2023-07-31T04:10:51;52.24;41.41;70.29;;
74234;Laerm;62591;55.764;37.718;2023-07-31T04:13:22;49.22;39.61;61.15;;
74234;Laerm;62591;55.764;37.718;2023-07-31T04:15:51;49.04;39.07;65.46;;
74234;Laerm;62591;55.764;37.718;2023-07-31T04:18:21;48.31;39.26;56.09;;
74234;Laerm;62591;55.764;37.718;2023-07-31T04:20:50;48.47;38.74;61.02;;
74234;Laerm;62591;55.764;37.718;2023-07-31T04:23:18;47.68;39.16;61.83;;
74234;Laerm;62591;55.764;37.718;2023-07-31T04:25:47;48.40;39.06;59.00;;
74234;Laerm;62591;55.764;37.718;2023-07-31T04:28:15;46.32;38.70;54.00;;
74234;Laerm;62591;55.764;37.718;2023-07-31T04:30:44;50.59;39.12;77.48;;
74234;Laerm;62591;55.764;37.718;2023-07-31T04:33:16;50.01;41.48;66.93;;
74234;Laerm;62591;55.764;37.718;2023-07-31T04:35:50;47.36;36.18;58.81;;
74234;Laerm;62591;55.764;37.718;2023-07-31T04:38:20;49.03;36.67;58.31;;
74234;Laerm;62591;55.764;37.718;2023-07-31T04:40:49;48.11;37.86;56.88;;
74234;Laerm;62591;55.764;37.718;2023-07-31T04:43:18;49.11;42.14;61.11;;
74234;Laerm;62591;55.764;37.718;2023-07-31T04:45:46;46.40;37.52;53.27;;
74234;Laerm;62591;55.764;37.718;2023-07-31T04:48:17;48.74;37.87;69.83;;
74234;Laerm;62591;55.764;37.718;2023-07-31T04:50:45;50.85;40.18;63.20;;
74234;Laerm;62591;55.764;37.718;2023-07-31T04:53:15;48.27;39.56;62.40;;
74234;Laerm;62591;55.764;37.718;2023-07-31T04:55:44;46.61;37.44;59.77;;
74234;Laerm;62591;55.764;37.718;2023-07-31T04:58:12;49.99;38.10;59.71;;
74234;Laerm;62591;55.764;37.718;2023-07-31T05:00:41;47.58;39.05;54.87;;
74234;Laerm;62591;55.764;37.718;2023-07-31T05:03:09;50.05;39.31;60.21;;
74234;Laerm;62591;55.764;37.718;2023-07-31T05:05:38;46.61;36.74;54.39;;
74234;Laerm;62591;55.764;37.718;2023-07-31T05:08:08;48.06;40.27;54.23;;
74234;Laerm;62591;55.764;37.718;2023-07-31T05:10:38;49.40;38.61;64.38;;
74234;Laerm;62591;55.764;37.718;2023-07-31T05:13:07;47.15;36.48;59.57;;
74234;Laerm;62591;55.764;37.718;2023-07-31T05:15:35;47.83;39.73;55.32;;
74234;Laerm;62591;55.764;37.718;2023-07-31T05:18:04;46.95;40.06;64.21;;
74234;Laerm;62591;55.764;37.718;2023-07-31T05:20:32;47.05;40.25;57.32;;
74234;Laerm;62591;55.764;37.718;2023-07-31T05:23:01;47.55;39.20;54.60;;
74234;Laerm;62591;55.764;37.718;2023-07-31T05:25:29;50.82;43.52;64.39;;
74234;Laerm;62591;55.764;37.718;2023-07-31T05:27:59;49.18;39.78;62.73;;
74234;Laerm;62591;55.764;37.718;2023-07-31T05:30:30;49.76;40.53;58.25;;
74234;Laerm;62591;55.764;37.718;2023-07-31T05:32:58;47.91;38.96;56.88;;
74234;Laerm;62591;55.764;37.718;2023-07-31T05:35:27;48.01;36.99;54.98;;
74234;Laerm;62591;55.764;37.718;2023-07-31T05:37:56;47.83;38.44;56.34;;
74234;Laerm;62591;55.764;37.718;2023-07-31T05:40:25;48.26;41.72;61.00;;
74234;Laerm;62591;55.764;37.718;2023-07-31T05:42:53;46.89;38.21;54.74;;
74234;Laerm;62591;55.764;37.718;2023-07-31T05:45:24;48.79;39.05;58.78;;
74234;Laerm;62591;55.764;37.718;2023-07-31T05:47:54;47.20;38.98;55.58;;
74234;Laerm;62591;55.764;37.718;2023-07-31T05:50:23;51.11;40.92;57.89;;
74234;Laerm;62591;55.764;37.718;2023-07-31T05:52:51;51.85;40.59;62.05;;
74234;Laerm;62591;55.764;37.718;2023-07-31T05:55:20;51.33;41.26;69.88;;
74234;Laerm;62591;55.764;37.718;2023-07-31T05:57:49;52.07;45.56;62.19;;
74234;Laerm;62591;55.764;37.718;2023-07-31T06:00:19;50.77;40.42;57.11;;
74234;Laerm;62591;55.764;37.718;2023-07-31T06:02:49;50.02;44.15;62.39;;
74234;Laerm;62591;55.764;37.718;2023-07-31T06:05:19;48.83;41.05;55.83;;
74234;Laerm;62591;55.764;37.718;2023-07-31T06:07:47;48.16;41.98;53.88;;
74234;Laerm;62591;55.764;37.718;2023-07-31T06:10:16;48.07;38.63;55.63;;
74234;Laerm;62591;55.764;37.718;2023-07-31T06:12:45;48.01;39.86;67.11;;
74234;Laerm;62591;55.764;37.718;2023-07-31T06:15:14;47.22;40.50;58.03;;
74234;Laerm;62591;55.764;37.718;2023-07-31T06:17:43;48.67;40.12;56.96;;
74234;Laerm;62591;55.764;37.718;2023-07-31T06:20:13;47.21;40.00;58.59;;
74234;Laerm;62591;55.764;37.718;2023-07-31T06:22:42;49.64;41.09;61.90;;
74234;Laerm;62591;55.764;37.718;2023-07-31T06:25:12;49.16;40.25;56.89;;
74234;Laerm;62591;55.764;37.718;2023-07-31T06:27:42;48.19;38.62;60.14;;
74234;Laerm;62591;55.764;37.718;2023-07-31T06:30:11;46.99;40.08;54.06;;
74234;Laerm;62591;55.764;37.718;2023-07-31T06:32:40;49.95;40.86;66.99;;
74234;Laerm;62591;55.764;37.718;2023-07-31T06:35:08;50.07;40.67;61.55;;
74234;Laerm;62591;55.764;37.718;2023-07-31T06:37:38;49.86;40.28;59.64;;
74234;Laerm;62591;55.764;37.718;2023-07-31T06:40:11;49.35;42.54;61.63;;
74234;Laerm;62591;55.764;37.718;2023-07-31T06:42:39;46.66;39.49;56.46;;
74234;Laerm;62591;55.764;37.718;2023-07-31T06:45:09;47.66;39.84;54.71;;
74234;Laerm;62591;55.764;37.718;2023-07-31T06:47:37;48.01;39.66;56.00;;
74234;Laerm;62591;55.764;37.718;2023-07-31T06:50:07;48.49;41.75;56.34;;
74234;Laerm;62591;55.764;37.718;2023-07-31T06:52:36;49.37;42.42;60.78;;
74234;Laerm;62591;55.764;37.718;2023-07-31T06:55:18;48.07;41.52;57.19;;
74234;Laerm;62591;55.764;37.718;2023-07-31T06:57:48;49.60;44.24;60.25;;
74234;Laerm;62591;55.764;37.718;2023-07-31T07:00:18;47.11;39.97;54.86;;
74234;Laerm;62591;55.764;37.718;2023-07-31T07:02:48;51.07;40.85;64.16;;
74234;Laerm;62591;55.764;37.718;2023-07-31T07:05:17;49.00;41.26;57.93;;
74234;Laerm;62591;55.764;37.718;2023-07-31T07:07:46;47.17;41.09;55.63;;
74234;Laerm;62591;55.764;37.718;2023-07-31T07:10:16;51.00;41.60;66.56;;
74234;Laerm;62591;55.764;37.718;2023-07-31T07:12:45;46.45;40.38;54.62;;
74234;Laerm;62591;55.764;37.718;2023-07-31T07:15:14;48.89;40.71;59.66;;
74234;Laerm;62591;55.764;37.718;2023-07-31T07:17:42;48.30;37.38;62.67;;
74234;Laerm;62591;55.764;37.718;2023-07-31T07:20:11;48.19;41.44;63.11;;
74234;Laerm;62591;55.764;37.718;2023-07-31T07:22:39;48.70;41.22;59.68;;
74234;Laerm;62591;55.764;37.718;2023-07-31T07:25:10;46.97;40.46;55.50;;
74234;Laerm;62591;55.764;37.718;2023-07-31T07:27:40;50.51;42.54;57.95;;
74234;Laerm;62591;55.764;37.718;2023-07-31T07:30:09;48.17;43.39;61.07;;
74234;Laerm;62591;55.764;37.718;2023-07-31T07:32:38;50.52;42.87;68.46;;
74234;Laerm;62591;55.764;37.718;2023-07-31T07:35:07;48.47;40.82;59.36;;
74234;Laerm;62591;55.764;37.718;2023-07-31T07:37:36;48.16;39.38;57.21;;
74234;Laerm;62591;55.764;37.718;2023-07-31T07:40:06;49.36;41.05;62.47;;
74234;Laerm;62591;55.764;37.718;2023-07-31T07:42:35;46.40;39.53;59.94;;
74234;Laerm;62591;55.764;37.718;2023-07-31T07:45:06;49.29;39.42;59.02;;
74234;Laerm;62591;55.764;37.718;2023-07-31T07:47:35;48.47;40.76;54.61;;
74234;Laerm;62591;55.764;37.718;2023-07-31T07:50:04;46.50;39.56;55.56;;
74234;Laerm;62591;55.764;37.718;2023-07-31T07:52:35;48.54;39.98;57.92;;
74234;Laerm;62591;55.764;37.718;2023-07-31T07:55:05;48.18;41.72;57.73;;
74234;Laerm;62591;55.764;37.718;2023-07-31T07:57:34;49.15;42.62;66.41;;
74234;Laerm;62591;55.764;37.718;2023-07-31T08:00:05;50.15;41.73;57.24;;
74234;Laerm;62591;55.764;37.718;2023-07-31T08:02:40;50.13;41.98;57.95;;
74234;Laerm;62591;55.764;37.718;2023-07-31T08:05:09;56.38;45.67;68.13;;
74234;Laerm;62591;55.764;37.718;2023-07-31T08:07:38;51.09;40.60;64.80;;
74234;Laerm;62591;55.764;37.718;2023-07-31T08:10:08;52.41;45.61;59.39;;
74234;Laerm;62591;55.764;37.718;2023-07-31T08:12:36;51.09;41.15;61.15;;
74234;Laerm;62591;55.764;37.718;2023-07-31T08:15:07;50.94;40.96;65.78;;
74234;Laerm;62591;55.764;37.718;2023-07-31T08:17:36;50.65;43.02;60.23;;
74234;Laerm;62591;55.764;37.718;2023-07-31T08:20:06;49.06;43.51;60.72;;
74234;Laerm;62591;55.764;37.718;2023-07-31T08:22:36;47.41;40.07;56.15;;
74234;Laerm;62591;55.764;37.718;2023-07-31T08:25:05;49.32;40.50;63.36;;
74234;Laerm;62591;55.764;37.718;2023-07-31T08:27:34;46.87;40.08;55.83;;
74234;Laerm;62591;55.764;37.718;2023-07-31T08:30:03;47.26;39.54;52.23;;
74234;Laerm;62591;55.764;37.718;2023-07-31T08:32:34;47.72;40.52;56.88;;
74234;Laerm;62591;55.764;37.718;2023-07-31T08:35:03;50.31;41.49;67.94;;
74234;Laerm;62591;55.764;37.718;2023-07-31T08:37:31;48.59;42.41;55.04;;
74234;Laerm;62591;55.764;37.718;2023-07-31T08:40:00;47.98;42.51;56.22;;
74234;Laerm;62591;55.764;37.718;2023-07-31T08:42:30;47.78;40.74;59.08;;
74234;Laerm;62591;55.764;37.718;2023-07-31T08:44:59;47.64;40.80;61.43;;
74234;Laerm;62591;55.764;37.718;2023-07-31T08:47:31;48.93;42.32;57.66;;
74234;Laerm;62591;55.764;37.718;2023-07-31T08:50:02;65.02;43.00;78.85;;
74234;Laerm;62591;55.764;37.718;2023-07-31T08:52:31;55.99;44.19;68.81;;
74234;Laerm;62591;55.764;37.718;2023-07-31T08:54:59;48.25;41.58;55.70;;
74234;Laerm;62591;55.764;37.718;2023-07-31T08:57:30;49.42;41.54;57.68;;
74234;Laerm;62591;55.764;37.718;2023-07-31T08:59:59;49.76;40.32;57.35;;
74234;Laerm;62591;55.764;37.718;2023-07-31T09:02:37;47.36;40.16;57.59;;
74234;Laerm;62591;55.764;37.718;2023-07-31T09:05:09;47.46;39.93;55.67;;
74234;Laerm;62591;55.764;37.718;2023-07-31T09:07:39;48.10;41.01;57.56;;
74234;Laerm;62591;55.764;37.718;2023-07-31T09:10:09;47.88;40.17;58.74;;
74234;Laerm;62591;55.764;37.718;2023-07-31T09:12:39;48.80;40.27;66.22;;
74234;Laerm;62591;55.764;37.718;2023-07-31T09:15:08;46.62;40.40;59.83;;
74234;Laerm;62591;55.764;37.718;2023-07-31T09:17:59;47.84;38.99;65.77;;
74234;Laerm;62591;55.764;37.718;2023-07-31T09:20:30;49.20;38.87;62.21;;
74234;Laerm;62591;55.764;37.718;2023-07-31T09:23:07;46.83;40.28;55.55;;
74234;Laerm;62591;55.764;37.718;2023-07-31T09:25:37;45.66;38.86;56.74;;
74234;Laerm;62591;55.764;37.718;2023-07-31T09:28:08;48.35;40.47;57.95;;
74234;Laerm;62591;55.764;37.718;2023-07-31T09:30:46;49.51;41.33;57.56;;
74234;Laerm;62591;55.764;37.718;2023-07-31T09:33:19;49.87;41.33;59.23;;
74234;Laerm;62591;55.764;37.718;2023-07-31T09:35:49;48.68;41.23;56.82;;
74234;Laerm;62591;55.764;37.718;2023-07-31T09:38:18;47.09;39.55;56.82;;
74234;Laerm;62591;55.764;37.718;2023-07-31T09:40:48;46.56;39.83;55.52;;
74234;Laerm;62591;55.764;37.718;2023-07-31T09:43:19;46.74;40.57;53.58;;
74234;Laerm;62591;55.764;37.718;2023-07-31T09:45:55;47.25;39.86;58.70;;
74234;Laerm;62591;55.764;37.718;2023-07-31T09:48:29;48.35;40.55;60.58;;
74234;Laerm;62591;55.764;37.718;2023-07-31T09:51:04;49.08;40.11;61.02;;
74234;Laerm;62591;55.764;37.718;2023-07-31T09:53:33;46.73;39.65;55.58;;
74234;Laerm;62591;55.764;37.718;2023-07-31T09:56:02;47.69;41.70;60.66;;
74234;Laerm;62591;55.764;37.718;2023-07-31T09:58:34;47.88;39.23;62.34;;
74234;Laerm;62591;55.764;37.718;2023-07-31T10:01:05;47.94;38.27;59.75;;
74234;Laerm;62591;55.764;37.718;2023-07-31T10:03:35;46.66;37.90;56.92;;
74234;Laerm;62591;55.764;37.718;2023-07-31T10:06:09;48.58;39.17;62.42;;
74234;Laerm;62591;55.764;37.718;2023-07-31T10:08:39;48.54;39.44;63.88;;
74234;Laerm;62591;55.764;37.718;2023-07-31T10:11:10;54.73;42.50;61.33;;
74234;Laerm;62591;55.764;37.718;2023-07-31T10:13:41;51.44;39.53;62.74;;
74234;Laerm;62591;55.764;37.718;2023-07-31T10:16:10;46.57;39.41;56.88;;
74234;Laerm;62591;55.764;37.718;2023-07-31T10:18:41;47.89;39.97;57.93;;
74234;Laerm;62591;55.764;37.718;2023-07-31T10:21:11;48.00;39.60;62.24;;
74234;Laerm;62591;55.764;37.718;2023-07-31T10:23:41;50.06;41.66;64.48;;
74234;Laerm;62591;55.764;37.718;2023-07-31T10:26:11;48.79;42.75;59.56;;
74234;Laerm;62591;55.764;37.718;2023-07-31T10:28:41;47.76;40.21;54.81;;
74234;Laerm;62591;55.764;37.718;2023-07-31T10:31:21;46.63;40.04;58.42;;
74234;Laerm;62591;55.764;37.718;2023-07-31T10:33:50;50.00;40.45;61.58;;
74234;Laerm;62591;55.764;37.718;2023-07-31T10:36:22;48.26;41.39;58.93;;
74234;Laerm;62591;55.764;37.718;2023-07-31T10:38:51;51.67;42.24;62.80;;
74234;Laerm;62591;55.764;37.718;2023-07-31T10:41:20;46.05;39.04;60.96;;
74234;Laerm;62591;55.764;37.718;2023-07-31T10:43:59;46.62;39.52;58.37;;
74234;Laerm;62591;55.764;37.718;2023-07-31T10:46:28;47.76;39.19;58.34;;
74234;Laerm;62591;55.764;37.718;2023-07-31T10:48:58;48.25;40.25;63.92;;
74234;Laerm;62591;55.764;37.718;2023-07-31T10:51:35;49.06;40.99;60.28;;
74234;Laerm;62591;55.764;37.718;2023-07-31T10:54:12;49.69;40.88;62.13;;
74234;Laerm;62591;55.764;37.718;2023-07-31T10:56:45;47.70;40.31;59.91;;
74234;Laerm;62591;55.764;37.718;2023-07-31T10:59:14;50.38;40.57;63.05;;
74234;Laerm;62591;55.764;37.718;2023-07-31T11:01:51;47.02;41.32;60.32;;
74234;Laerm;62591;55.764;37.718;2023-07-31T11:04:24;49.34;40.81;60.38;;
74234;Laerm;62591;55.764;37.718;2023-07-31T11:06:57;48.86;40.46;60.82;;
74234;Laerm;62591;55.764;37.718;2023-07-31T11:09:28;47.51;41.80;55.99;;
74234;Laerm;62591;55.764;37.718;2023-07-31T11:11:59;48.76;40.61;58.64;;
74234;Laerm;62591;55.764;37.718;2023-07-31T11:14:28;48.89;41.21;60.07;;
74234;Laerm;62591;55.764;37.718;2023-07-31T11:16:57;46.84;40.99;62.91;;
74234;Laerm;62591;55.764;37.718;2023-07-31T11:19:25;46.83;39.01;65.18;;
74234;Laerm;62591;55.764;37.718;2023-07-31T11:21:56;55.83;42.04;67.77;;
74234;Laerm;62591;55.764;37.718;2023-07-31T11:24:25;47.71;39.94;68.31;;
74234;Laerm;62591;55.764;37.718;2023-07-31T11:26:54;48.42;42.07;62.76;;
74234;Laerm;62591;55.764;37.718;2023-07-31T11:29:27;52.18;39.95;72.41;;
74234;Laerm;62591;55.764;37.718;2023-07-31T11:31:56;54.28;43.81;73.78;;
74234;Laerm;62591;55.764;37.718;2023-07-31T11:34:25;48.53;39.92;58.89;;
74234;Laerm;62591;55.764;37.718;2023-07-31T11:36:53;50.47;41.91;63.09;;
74234;Laerm;62591;55.764;37.718;2023-07-31T11:39:24;59.48;40.14;70.81;;
74234;Laerm;62591;55.764;37.718;2023-07-31T11:41:58;47.59;41.52;57.65;;
74234;Laerm;62591;55.764;37.718;2023-07-31T11:44:38;51.18;41.66;63.56;;
74234;Laerm;62591;55.764;37.718;2023-07-31T11:47:08;55.60;41.80;77.98;;
74234;Laerm;62591;55.764;37.718;2023-07-31T11:49:38;46.87;42.29;53.68;;
74234;Laerm;62591;55.764;37.718;2023-07-31T11:52:07;51.11;41.77;65.20;;
74234;Laerm;62591;55.764;37.718;2023-07-31T11:54:39;48.56;39.46;58.14;;
74234;Laerm;62591;55.764;37.718;2023-07-31T11:57:08;48.66;40.24;62.14;;
74234;Laerm;62591;55.764;37.718;2023-07-31T11:59:38;49.73;43.18;61.07;;
74234;Laerm;62591;55.764;37.718;2023-07-31T12:02:07;48.53;42.81;57.43;;
74234;Laerm;62591;55.764;37.718;2023-07-31T12:04:36;47.42;41.77;69.59;;
74234;Laerm;62591;55.764;37.718;2023-07-31T12:07:06;46.31;39.49;58.41;;
74234;Laerm;62591;55.764;37.718;2023-07-31T12:09:34;47.56;40.55;61.36;;
74234;Laerm;62591;55.764;37.718;2023-07-31T12:12:08;50.97;41.25;70.05;;
74234;Laerm;62591;55.764;37.718;2023-07-31T12:14:41;46.78;39.86;58.77;;
74234;Laerm;62591;55.764;37.718;2023-07-31T12:17:10;49.81;42.76;60.24;;
74234;Laerm;62591;55.764;37.718;2023-07-31T12:19:38;48.28;40.26;57.29;;
74234;Laerm;62591;55.764;37.718;2023-07-31T12:22:11;47.10;40.35;61.44;;
74234;Laerm;62591;55.764;37.718;2023-07-31T12:24:40;47.64;42.36;63.98;;
74234;Laerm;62591;55.764;37.718;2023-07-31T12:27:11;47.61;40.73;61.37;;
74234;Laerm;62591;55.764;37.718;2023-07-31T12:29:42;48.46;39.56;67.91;;
74234;Laerm;62591;55.764;37.718;2023-07-31T12:32:21;49.07;39.97;59.65;;
74234;Laerm;62591;55.764;37.718;2023-07-31T12:34:51;47.67;40.74;56.67;;
74234;Laerm;62591;55.764;37.718;2023-07-31T12:37:20;48.25;39.82;63.28;;
74234;Laerm;62591;55.764;37.718;2023-07-31T12:39:49;50.17;40.88;68.84;;
74234;Laerm;62591;55.764;37.718;2023-07-31T12:42:19;47.54;39.40;57.29;;
74234;Laerm;62591;55.764;37.718;2023-07-31T12:44:48;48.23;39.24;59.04;;
74234;Laerm;62591;55.764;37.718;2023-07-31T12:47:16;46.56;39.56;55.63;;
74234;Laerm;62591;55.764;37.718;2023-07-31T12:49:45;47.12;41.17;53.27;;
74234;Laerm;62591;55.764;37.718;2023-07-31T12:52:14;47.44;41.21;56.90;;
74234;Laerm;62591;55.764;37.718;2023-07-31T12:54:42;46.04;39.90;54.17;;
74234;Laerm;62591;55.764;37.718;2023-07-31T12:57:11;47.91;40.55;56.93;;
74234;Laerm;62591;55.764;37.718;2023-07-31T12:59:41;55.73;38.73;75.29;;
74234;Laerm;62591;55.764;37.718;2023-07-31T13:02:10;48.65;42.38;62.67;;
74234;Laerm;62591;55.764;37.718;2023-07-31T13:04:40;48.14;43.08;55.79;;
74234;Laerm;62591;55.764;37.718;2023-07-31T13:07:09;48.26;41.58;57.11;;
74234;Laerm;62591;55.764;37.718;2023-07-31T13:09:38;50.36;42.33;62.99;;
74234;Laerm;62591;55.764;37.718;2023-07-31T13:12:08;47.81;40.40;60.65;;
74234;Laerm;62591;55.764;37.718;2023-07-31T13:14:36;46.21;39.27;57.95;;
74234;Laerm;62591;55.764;37.718;2023-07-31T13:17:07;46.11;39.23;56.02;;
74234;Laerm;62591;55.764;37.718;2023-07-31T13:19:36;47.88;42.29;54.59;;
74234;Laerm;62591;55.764;37.718;2023-07-31T13:22:05;46.73;40.43;52.78;;
74234;Laerm;62591;55.764;37.718;2023-07-31T13:24:33;47.19;40.51;65.70;;
74234;Laerm;62591;55.764;37.718;2023-07-31T13:27:02;50.83;41.07;67.59;;
74234;Laerm;62591;55.764;37.718;2023-07-31T13:29:31;57.35;40.91;92.47;;
74234;Laerm;62591;55.764;37.718;2023-07-31T13:32:00;48.89;40.12;56.40;;
74234;Laerm;62591;55.764;37.718;2023-07-31T13:34:32;47.66;41.94;60.18;;
74234;Laerm;62591;55.764;37.718;2023-07-31T13:37:01;49.06;40.26;71.46;;
74234;Laerm;62591;55.764;37.718;2023-07-31T13:39:29;47.76;40.93;56.55;;
74234;Laerm;62591;55.764;37.718;2023-07-31T13:41:58;48.17;41.09;59.98;;
74234;Laerm;62591;55.764;37.718;2023-07-31T13:44:27;52.93;40.57;65.22;;
74234;Laerm;62591;55.764;37.718;2023-07-31T13:46:55;48.49;41.50;56.32;;
74234;Laerm;62591;55.764;37.718;2023-07-31T13:49:24;48.92;40.42;59.26;;